sensor_id;sensor_type;location;lat;lon;timestamp;pressure;altitude;pressure_sealevel;temperature;humidity
44992;BME280;56865;51.618;7.406;2023-05-19T00:02:16;101849.75;;;27.79;47.57
44992;BME280;56865;51.618;7.406;2023-05-19T00:04:49;101856.25;;;27.97;48.12
44992;BME280;56865;51.618;7.406;2023-05-19T00:07:19;101842.31;;;27.95;50.16
44992;BME280;56865;51.618;7.406;2023-05-19T00:09:53;101848.44;;;27.95;49.24
44992;BME280;56865;51.618;7.406;2023-05-19T00:12:23;101850.66;;;27.78;49.19
44992;BME280;56865;51.618;7.406;2023-05-19T00:18:13;101846.97;;;27.85;49.24
44992;BME280;56865;51.618;7.406;2023-05-19T00:20:46;101843.25;;;27.92;49.14
44992;BME280;56865;51.618;7.406;2023-05-19T00:26:20;101852.94;;;27.55;50.48
44992;BME280;56865;51.618;7.406;2023-05-19T00:28:51;101844.09;;;27.61;49.31
44992;BME280;56865;51.618;7.406;2023-05-19T00:31:21;101852.47;;;27.38;49.29
44992;BME280;56865;51.618;7.406;2023-05-19T00:34:21;101850.88;;;27.31;50.48
44992;BME280;56865;51.618;7.406;2023-05-19T00:36:56;101852.75;;;27.27;51.19
44992;BME280;56865;51.618;7.406;2023-05-19T00:39:27;101851.34;;;27.12;49.34
44992;BME280;56865;51.618;7.406;2023-05-19T01:03:29;101846.38;;;27.00;51.25
44992;BME280;56865;51.618;7.406;2023-05-19T01:06:01;101851.84;;;26.89;51.74
44992;BME280;56865;51.618;7.406;2023-05-19T01:08:31;101841.31;;;26.90;51.50
44992;BME280;56865;51.618;7.406;2023-05-19T01:11:03;101846.91;;;26.75;50.13
44992;BME280;56865;51.618;7.406;2023-05-19T01:13:33;101839.91;;;26.77;51.63
44992;BME280;56865;51.618;7.406;2023-05-19T01:16:09;101844.34;;;26.70;51.35
44992;BME280;56865;51.618;7.406;2023-05-19T01:18:52;101845.22;;;26.71;50.96
44992;BME280;56865;51.618;7.406;2023-05-19T01:24:26;101835.75;;;26.65;51.34
44992;BME280;56865;51.618;7.406;2023-05-19T01:27:14;101845.34;;;26.65;51.10
44992;BME280;56865;51.618;7.406;2023-05-19T01:32:33;101839.19;;;26.67;51.76
44992;BME280;56865;51.618;7.406;2023-05-19T01:35:03;101845.34;;;26.65;51.00
44992;BME280;56865;51.618;7.406;2023-05-19T01:37:34;101834.09;;;26.61;50.66
44992;BME280;56865;51.618;7.406;2023-05-19T01:40:05;101834.00;;;26.66;50.24
44992;BME280;56865;51.618;7.406;2023-05-19T01:42:36;101836.88;;;26.53;51.22
44992;BME280;56865;51.618;7.406;2023-05-19T01:45:06;101834.38;;;26.47;52.73
44992;BME280;56865;51.618;7.406;2023-05-19T01:47:42;101840.47;;;26.49;48.38
44992;BME280;56865;51.618;7.406;2023-05-19T01:50:12;101835.94;;;26.56;49.81
44992;BME280;56865;51.618;7.406;2023-05-19T01:52:41;101842.16;;;26.50;51.32
44992;BME280;56865;51.618;7.406;2023-05-19T01:55:11;101842.16;;;26.50;50.97
44992;BME280;56865;51.618;7.406;2023-05-19T01:57:42;101835.28;;;26.46;50.88
44992;BME280;56865;51.618;7.406;2023-05-19T02:00:17;101841.56;;;26.37;51.79
44992;BME280;56865;51.618;7.406;2023-05-19T02:02:52;101838.94;;;26.37;51.07
44992;BME280;56865;51.618;7.406;2023-05-19T02:05:26;101843.34;;;26.35;51.15
44992;BME280;56865;51.618;7.406;2023-05-19T02:07:58;101841.50;;;26.39;51.80
44992;BME280;56865;51.618;7.406;2023-05-19T02:10:31;101848.63;;;26.32;51.72
44992;BME280;56865;51.618;7.406;2023-05-19T02:13:03;101854.63;;;26.37;51.73
44992;BME280;56865;51.618;7.406;2023-05-19T02:15:38;101849.59;;;26.28;52.41
44992;BME280;56865;51.618;7.406;2023-05-19T02:18:12;101841.78;;;26.25;52.04
44992;BME280;56865;51.618;7.406;2023-05-19T02:20:43;101847.81;;;26.28;51.78
44992;BME280;56865;51.618;7.406;2023-05-19T02:23:14;101846.91;;;26.33;51.77
44992;BME280;56865;51.618;7.406;2023-05-19T02:25:44;101847.13;;;26.20;51.91
44992;BME280;56865;51.618;7.406;2023-05-19T02:28:13;101848.25;;;26.07;50.16
44992;BME280;56865;51.618;7.406;2023-05-19T02:30:44;101843.97;;;26.00;52.32
44992;BME280;56865;51.618;7.406;2023-05-19T02:33:16;101852.59;;;26.05;50.93
44992;BME280;56865;51.618;7.406;2023-05-19T02:35:46;101848.81;;;26.23;51.85
44992;BME280;56865;51.618;7.406;2023-05-19T02:38:16;101850.72;;;26.15;52.53
44992;BME280;56865;51.618;7.406;2023-05-19T02:40:49;101845.09;;;25.86;50.28
44992;BME280;56865;51.618;7.406;2023-05-19T02:43:20;101846.69;;;25.93;50.51
44992;BME280;56865;51.618;7.406;2023-05-19T02:45:50;101842.94;;;26.10;52.59
44992;BME280;56865;51.618;7.406;2023-05-19T02:48:23;101845.50;;;26.13;52.71
44992;BME280;56865;51.618;7.406;2023-05-19T02:50:53;101844.75;;;26.05;52.46
44992;BME280;56865;51.618;7.406;2023-05-19T02:53:23;101833.63;;;25.93;52.45
44992;BME280;56865;51.618;7.406;2023-05-19T02:55:52;101839.03;;;25.84;52.59
44992;BME280;56865;51.618;7.406;2023-05-19T02:58:23;101828.50;;;25.89;53.01
44992;BME280;56865;51.618;7.406;2023-05-19T03:00:52;101829.44;;;25.86;52.76
44992;BME280;56865;51.618;7.406;2023-05-19T03:03:25;101825.16;;;25.80;53.03
44992;BME280;56865;51.618;7.406;2023-05-19T03:05:55;101822.66;;;25.74;52.32
44992;BME280;56865;51.618;7.406;2023-05-19T03:08:25;101825.91;;;25.87;53.06
44992;BME280;56865;51.618;7.406;2023-05-19T03:10:55;101823.44;;;25.79;52.89
44992;BME280;56865;51.618;7.406;2023-05-19T03:13:25;101824.34;;;25.77;53.42
44992;BME280;56865;51.618;7.406;2023-05-19T03:15:55;101827.06;;;25.72;51.56
44992;BME280;56865;51.618;7.406;2023-05-19T03:18:28;101829.69;;;25.72;53.02
44992;BME280;56865;51.618;7.406;2023-05-19T03:20:58;101822.78;;;25.68;53.78
44992;BME280;56865;51.618;7.406;2023-05-19T03:23:28;101823.81;;;25.58;53.43
44992;BME280;56865;51.618;7.406;2023-05-19T03:25:58;101827.91;;;25.73;54.15
44992;BME280;56865;51.618;7.406;2023-05-19T03:28:29;101836.72;;;25.69;53.72
44992;BME280;56865;51.618;7.406;2023-05-19T03:30:59;101836.03;;;25.56;53.92
44992;BME280;56865;51.618;7.406;2023-05-19T03:33:32;101835.13;;;25.58;53.18
44992;BME280;56865;51.618;7.406;2023-05-19T03:36:01;101840.22;;;25.64;53.54
44992;BME280;56865;51.618;7.406;2023-05-19T03:38:32;101841.16;;;25.63;53.59
44992;BME280;56865;51.618;7.406;2023-05-19T03:41:02;101838.56;;;25.60;53.62
44992;BME280;56865;51.618;7.406;2023-05-19T03:43:32;101835.28;;;25.49;53.76
44992;BME280;56865;51.618;7.406;2023-05-19T03:46:02;101837.00;;;25.50;53.65
44992;BME280;56865;51.618;7.406;2023-05-19T03:48:35;101835.28;;;25.49;54.11
44992;BME280;56865;51.618;7.406;2023-05-19T03:51:05;101831.72;;;25.55;53.86
44992;BME280;56865;51.618;7.406;2023-05-19T03:53:35;101836.06;;;25.54;54.02
44992;BME280;56865;51.618;7.406;2023-05-19T03:56:05;101833.50;;;25.51;54.40
44992;BME280;56865;51.618;7.406;2023-05-19T03:58:37;101834.28;;;25.56;54.72
44992;BME280;56865;51.618;7.406;2023-05-19T04:01:09;101837.75;;;25.57;53.78
44992;BME280;56865;51.618;7.406;2023-05-19T04:03:41;101836.84;;;25.59;54.16
44992;BME280;56865;51.618;7.406;2023-05-19T04:06:12;101830.56;;;25.70;54.15
44992;BME280;56865;51.618;7.406;2023-05-19T04:08:42;101836.72;;;25.67;53.88
44992;BME280;56865;51.618;7.406;2023-05-19T04:11:15;101841.16;;;25.62;53.21
44992;BME280;56865;51.618;7.406;2023-05-19T04:13:45;101841.94;;;25.67;53.80
44992;BME280;56865;51.618;7.406;2023-05-19T04:16:15;101834.72;;;25.82;54.09
44992;BME280;56865;51.618;7.406;2023-05-19T04:18:50;101843.31;;;25.88;50.59
44992;BME280;56865;51.618;7.406;2023-05-19T04:21:24;101842.22;;;26.02;53.55
44992;BME280;56865;51.618;7.406;2023-05-19T04:23:54;101843.78;;;26.12;53.32
44992;BME280;56865;51.618;7.406;2023-05-19T04:26:26;101846.28;;;26.18;53.44
44992;BME280;56865;51.618;7.406;2023-05-19T04:28:56;101848.44;;;25.94;53.63
44992;BME280;56865;51.618;7.406;2023-05-19T04:31:27;101849.66;;;26.23;54.01
44992;BME280;56865;51.618;7.406;2023-05-19T04:34:00;101847.78;;;26.30;53.41
44992;BME280;56865;51.618;7.406;2023-05-19T04:36:30;101846.81;;;26.36;53.27
44992;BME280;56865;51.618;7.406;2023-05-19T04:39:00;101845.81;;;26.43;53.69
44992;BME280;56865;51.618;7.406;2023-05-19T04:41:33;101849.50;;;26.33;52.18
44992;BME280;56865;51.618;7.406;2023-05-19T04:44:08;101848.59;;;26.35;50.96
44992;BME280;56865;51.618;7.406;2023-05-19T04:46:39;101841.28;;;26.51;53.05
44992;BME280;56865;51.618;7.406;2023-05-19T04:49:13;101854.03;;;26.67;53.64
44992;BME280;56865;51.618;7.406;2023-05-19T04:51:45;101854.94;;;26.66;54.12
44992;BME280;56865;51.618;7.406;2023-05-19T04:54:16;101851.28;;;26.74;54.29
44992;BME280;56865;51.618;7.406;2023-05-19T04:56:47;101856.41;;;26.79;51.08
44992;BME280;56865;51.618;7.406;2023-05-19T04:59:17;101857.97;;;26.88;51.57
44992;BME280;56865;51.618;7.406;2023-05-19T05:01:47;101857.63;;;27.03;53.49
44992;BME280;56865;51.618;7.406;2023-05-19T05:04:20;101856.91;;;26.97;49.96
44992;BME280;56865;51.618;7.406;2023-05-19T05:06:50;101855.22;;;27.33;51.83
44992;BME280;56865;51.618;7.406;2023-05-19T05:09:20;101856.44;;;27.18;51.96
44992;BME280;56865;51.618;7.406;2023-05-19T05:11:54;101850.56;;;27.46;53.15
44992;BME280;56865;51.618;7.406;2023-05-19T05:14:26;101856.44;;;27.54;51.48
44992;BME280;56865;51.618;7.406;2023-05-19T05:16:56;101853.41;;;27.71;49.86
44992;BME280;56865;51.618;7.406;2023-05-19T05:19:38;101859.19;;;27.84;51.63
44992;BME280;56865;51.618;7.406;2023-05-19T05:22:08;101858.34;;;27.84;49.52
44992;BME280;56865;51.618;7.406;2023-05-19T05:24:40;101861.94;;;28.14;51.80
44992;BME280;56865;51.618;7.406;2023-05-19T05:27:10;101860.44;;;28.37;51.17
44992;BME280;56865;51.618;7.406;2023-05-19T05:29:40;101852.44;;;28.10;50.93
44992;BME280;56865;51.618;7.406;2023-05-19T05:32:11;101860.16;;;28.46;52.29
44992;BME280;56865;51.618;7.406;2023-05-19T05:34:45;101856.38;;;28.57;52.69
44992;BME280;56865;51.618;7.406;2023-05-19T05:37:20;101850.84;;;28.66;54.25
44992;BME280;56865;51.618;7.406;2023-05-19T05:39:50;101850.88;;;28.94;53.48
44992;BME280;56865;51.618;7.406;2023-05-19T05:42:20;101851.47;;;28.76;50.44
44992;BME280;56865;51.618;7.406;2023-05-19T05:44:55;101855.22;;;28.97;52.17
44992;BME280;56865;51.618;7.406;2023-05-19T05:47:26;101845.34;;;28.45;50.90
44992;BME280;56865;51.618;7.406;2023-05-19T05:49:59;101854.34;;;28.68;51.12
44992;BME280;56865;51.618;7.406;2023-05-19T05:52:31;101858.09;;;28.58;50.45
44992;BME280;56865;51.618;7.406;2023-05-19T05:55:03;101848.81;;;28.77;50.61
44992;BME280;56865;51.618;7.406;2023-05-19T05:57:41;101860.72;;;28.88;49.81
44992;BME280;56865;51.618;7.406;2023-05-19T06:00:23;101858.91;;;29.18;48.24
44992;BME280;56865;51.618;7.406;2023-05-19T06:02:56;101857.38;;;29.39;47.40
44992;BME280;56865;51.618;7.406;2023-05-19T06:05:40;101857.09;;;29.48;48.98
44992;BME280;56865;51.618;7.406;2023-05-19T06:08:11;101851.81;;;29.75;47.84
44992;BME280;56865;51.618;7.406;2023-05-19T06:10:44;101849.13;;;29.77;48.31
44992;BME280;56865;51.618;7.406;2023-05-19T06:13:22;101854.94;;;29.87;46.34
44992;BME280;56865;51.618;7.406;2023-05-19T06:15:54;101849.84;;;30.07;47.25
44992;BME280;56865;51.618;7.406;2023-05-19T06:18:31;101846.50;;;30.75;48.19
44992;BME280;56865;51.618;7.406;2023-05-19T06:21:20;101850.19;;;31.15;49.55
44992;BME280;56865;51.618;7.406;2023-05-19T06:23:58;101845.53;;;31.22;47.23
44992;BME280;56865;51.618;7.406;2023-05-19T06:26:33;101840.44;;;31.60;48.06
44992;BME280;56865;51.618;7.406;2023-05-19T06:29:08;101840.34;;;31.84;50.04
44992;BME280;56865;51.618;7.406;2023-05-19T06:32:22;101842.31;;;31.79;47.23
44992;BME280;56865;51.618;7.406;2023-05-19T06:35:37;101844.44;;;32.10;46.29
44992;BME280;56865;51.618;7.406;2023-05-19T06:48:50;101844.16;;;32.37;45.35
44992;BME280;56865;51.618;7.406;2023-05-19T06:52:06;101846.94;;;32.91;46.47
44992;BME280;56865;51.618;7.406;2023-05-19T06:54:36;101846.22;;;32.87;44.79
44992;BME280;56865;51.618;7.406;2023-05-19T06:57:06;101852.44;;;32.67;42.35
44992;BME280;56865;51.618;7.406;2023-05-19T06:59:36;101850.38;;;32.93;45.66
44992;BME280;56865;51.618;7.406;2023-05-19T07:02:06;101844.31;;;33.09;44.74
44992;BME280;56865;51.618;7.406;2023-05-19T07:04:44;101841.06;;;33.21;44.15
44992;BME280;56865;51.618;7.406;2023-05-19T07:07:19;101839.34;;;33.02;43.75
44992;BME280;56865;51.618;7.406;2023-05-19T07:09:50;101841.91;;;33.21;42.89
44992;BME280;56865;51.618;7.406;2023-05-19T07:12:20;101843.91;;;32.99;43.43
44992;BME280;56865;51.618;7.406;2023-05-19T07:14:57;101845.16;;;33.09;41.58
44992;BME280;56865;51.618;7.406;2023-05-19T07:17:27;101839.56;;;33.15;41.75
44992;BME280;56865;51.618;7.406;2023-05-19T07:20:00;101839.34;;;33.02;40.10
44992;BME280;56865;51.618;7.406;2023-05-19T07:22:32;101840.03;;;33.06;40.22
44992;BME280;56865;51.618;7.406;2023-05-19T07:25:04;101843.50;;;33.43;40.73
44992;BME280;56865;51.618;7.406;2023-05-19T07:27:34;101843.81;;;33.37;40.44
44992;BME280;56865;51.618;7.406;2023-05-19T07:30:05;101840.63;;;33.48;41.52
44992;BME280;56865;51.618;7.406;2023-05-19T07:32:35;101845.78;;;33.14;41.97
44992;BME280;56865;51.618;7.406;2023-05-19T07:35:07;101843.09;;;33.51;41.32
44992;BME280;56865;51.618;7.406;2023-05-19T07:37:37;101838.63;;;33.53;42.88
44992;BME280;56865;51.618;7.406;2023-05-19T07:40:08;101844.31;;;33.09;39.01
44992;BME280;56865;51.618;7.406;2023-05-19T07:42:39;101843.19;;;32.95;39.83
44992;BME280;56865;51.618;7.406;2023-05-19T07:45:12;101838.00;;;33.30;41.83
44992;BME280;56865;51.618;7.406;2023-05-19T07:47:45;101839.41;;;33.37;39.79
44992;BME280;56865;51.618;7.406;2023-05-19T07:50:25;101845.28;;;33.25;39.60
44992;BME280;56865;51.618;7.406;2023-05-19T07:53:07;101831.38;;;33.57;40.85
44992;BME280;56865;51.618;7.406;2023-05-19T07:55:45;101827.13;;;33.36;42.32
44992;BME280;56865;51.618;7.406;2023-05-19T07:58:18;101828.78;;;33.02;40.68
44992;BME280;56865;51.618;7.406;2023-05-19T08:00:49;101830.72;;;33.16;40.37
44992;BME280;56865;51.618;7.406;2023-05-19T08:03:19;101831.38;;;33.39;39.72
44992;BME280;56865;51.618;7.406;2023-05-19T08:05:52;101827.25;;;33.51;40.60
44992;BME280;56865;51.618;7.406;2023-05-19T08:08:24;101821.63;;;33.22;40.02
44992;BME280;56865;51.618;7.406;2023-05-19T08:10:54;101818.38;;;33.52;42.88
44992;BME280;56865;51.618;7.406;2023-05-19T08:13:25;101816.53;;;33.36;40.64
44992;BME280;56865;51.618;7.406;2023-05-19T08:15:55;101816.38;;;33.40;41.21
44992;BME280;56865;51.618;7.406;2023-05-19T08:18:31;101821.19;;;33.66;40.83
44992;BME280;56865;51.618;7.406;2023-05-19T08:21:14;101820.25;;;33.15;39.39
44992;BME280;56865;51.618;7.406;2023-05-19T08:23:47;101819.25;;;32.81;39.67
44992;BME280;56865;51.618;7.406;2023-05-19T08:26:17;101818.19;;;33.02;39.02
44992;BME280;56865;51.618;7.406;2023-05-19T08:28:47;101819.31;;;33.51;42.66
44992;BME280;56865;51.618;7.406;2023-05-19T08:31:17;101814.94;;;32.97;40.43
44992;BME280;56865;51.618;7.406;2023-05-19T08:33:48;101811.16;;;33.38;40.43
44992;BME280;56865;51.618;7.406;2023-05-19T08:36:20;101795.03;;;33.08;40.48
44992;BME280;56865;51.618;7.406;2023-05-19T08:38:50;101801.31;;;32.68;39.55
44992;BME280;56865;51.618;7.406;2023-05-19T08:41:20;101800.56;;;32.47;39.82
44992;BME280;56865;51.618;7.406;2023-05-19T08:43:50;101794.38;;;33.39;41.55
44992;BME280;56865;51.618;7.406;2023-05-19T08:46:22;101789.91;;;33.22;39.20
44992;BME280;56865;51.618;7.406;2023-05-19T08:48:55;101799.72;;;33.20;40.66
44992;BME280;56865;51.618;7.406;2023-05-19T08:51:32;101790.69;;;33.24;39.82
44992;BME280;56865;51.618;7.406;2023-05-19T08:54:05;101793.34;;;33.06;39.55
44992;BME280;56865;51.618;7.406;2023-05-19T08:56:38;101785.09;;;33.65;40.60
44992;BME280;56865;51.618;7.406;2023-05-19T08:59:08;101782.25;;;33.35;41.52
44992;BME280;56865;51.618;7.406;2023-05-19T09:01:40;101780.47;;;33.35;41.12
44992;BME280;56865;51.618;7.406;2023-05-19T09:04:21;101769.03;;;33.68;41.30
44992;BME280;56865;51.618;7.406;2023-05-19T09:06:54;101768.13;;;33.69;40.95
44992;BME280;56865;51.618;7.406;2023-05-19T09:09:24;101771.44;;;32.49;40.13
44992;BME280;56865;51.618;7.406;2023-05-19T09:11:56;101770.16;;;32.94;38.48
44992;BME280;56865;51.618;7.406;2023-05-19T09:14:35;101766.59;;;33.13;40.93
44992;BME280;56865;51.618;7.406;2023-05-19T09:17:12;101770.59;;;32.48;37.91
44992;BME280;56865;51.618;7.406;2023-05-19T09:19:50;101767.38;;;32.97;37.15
44992;BME280;56865;51.618;7.406;2023-05-19T09:22:25;101768.16;;;32.82;36.71
44992;BME280;56865;51.618;7.406;2023-05-19T09:25:02;101765.38;;;33.20;38.71
44992;BME280;56865;51.618;7.406;2023-05-19T09:27:32;101763.09;;;33.65;38.57
44992;BME280;56865;51.618;7.406;2023-05-19T09:30:06;101762.50;;;33.25;38.38
44992;BME280;56865;51.618;7.406;2023-05-19T09:32:38;101756.81;;;32.97;38.28
44992;BME280;56865;51.618;7.406;2023-05-19T09:35:12;101751.63;;;33.82;38.43
44992;BME280;56865;51.618;7.406;2023-05-19T09:37:45;101754.72;;;34.22;39.56
44992;BME280;56865;51.618;7.406;2023-05-19T09:40:18;101746.22;;;33.67;39.06
44992;BME280;56865;51.618;7.406;2023-05-19T09:42:52;101755.66;;;33.89;40.55
44992;BME280;56865;51.618;7.406;2023-05-19T09:45:22;101746.09;;;33.86;39.81
44992;BME280;56865;51.618;7.406;2023-05-19T09:47:52;101742.03;;;34.13;39.73
44992;BME280;56865;51.618;7.406;2023-05-19T09:50:22;101742.09;;;34.27;40.17
44992;BME280;56865;51.618;7.406;2023-05-19T09:52:58;101738.66;;;33.93;39.31
44992;BME280;56865;51.618;7.406;2023-05-19T09:55:28;101752.41;;;34.00;39.39
44992;BME280;56865;51.618;7.406;2023-05-19T09:58:00;101745.16;;;33.88;38.33
44992;BME280;56865;51.618;7.406;2023-05-19T10:00:32;101732.94;;;34.01;38.94
44992;BME280;56865;51.618;7.406;2023-05-19T10:03:03;101733.66;;;33.71;39.06
44992;BME280;56865;51.618;7.406;2023-05-19T10:05:33;101726.03;;;33.98;39.08
44992;BME280;56865;51.618;7.406;2023-05-19T10:08:06;101730.41;;;33.15;36.98
44992;BME280;56865;51.618;7.406;2023-05-19T10:10:37;101731.25;;;34.16;39.48
44992;BME280;56865;51.618;7.406;2023-05-19T10:13:07;101730.41;;;33.66;37.38
44992;BME280;56865;51.618;7.406;2023-05-19T10:15:37;101721.38;;;33.36;36.37
44992;BME280;56865;51.618;7.406;2023-05-19T10:18:23;101720.75;;;34.30;39.01
44992;BME280;56865;51.618;7.406;2023-05-19T10:20:55;101713.22;;;33.57;38.18
44992;BME280;56865;51.618;7.406;2023-05-19T10:23:28;101732.78;;;34.04;37.05
44992;BME280;56865;51.618;7.406;2023-05-19T10:25:58;101723.81;;;33.57;36.03
44992;BME280;56865;51.618;7.406;2023-05-19T10:28:32;101718.69;;;34.03;38.15
44992;BME280;56865;51.618;7.406;2023-05-19T10:31:03;101716.78;;;33.05;36.96
44992;BME280;56865;51.618;7.406;2023-05-19T10:33:39;101713.06;;;34.10;37.72
44992;BME280;56865;51.618;7.406;2023-05-19T10:36:14;101712.06;;;33.96;36.30
44992;BME280;56865;51.618;7.406;2023-05-19T10:38:55;101715.91;;;34.07;40.75
44992;BME280;56865;51.618;7.406;2023-05-19T10:41:27;101717.91;;;34.33;38.48
44992;BME280;56865;51.618;7.406;2023-05-19T10:44:12;101709.50;;;33.61;36.28
44992;BME280;56865;51.618;7.406;2023-05-19T10:46:50;101713.31;;;33.89;36.39
44992;BME280;56865;51.618;7.406;2023-05-19T10:49:22;101716.22;;;34.00;37.25
44992;BME280;56865;51.618;7.406;2023-05-19T10:51:54;101708.78;;;34.23;37.26
44992;BME280;56865;51.618;7.406;2023-05-19T10:54:43;101695.97;;;33.83;36.71
44992;BME280;56865;51.618;7.406;2023-05-19T10:57:15;101707.28;;;33.69;35.88
44992;BME280;56865;51.618;7.406;2023-05-19T10:59:48;101697.03;;;33.97;37.52
44992;BME280;56865;51.618;7.406;2023-05-19T11:05:26;101689.19;;;33.95;37.01
44992;BME280;56865;51.618;7.406;2023-05-19T11:07:57;101690.63;;;34.17;36.45
44992;BME280;56865;51.618;7.406;2023-05-19T11:10:33;101696.09;;;34.14;38.01
44992;BME280;56865;51.618;7.406;2023-05-19T11:13:05;101697.03;;;33.63;36.78
44992;BME280;56865;51.618;7.406;2023-05-19T11:15:48;101693.66;;;34.57;38.84
44992;BME280;56865;51.618;7.406;2023-05-19T11:18:18;101689.63;;;34.80;38.55
44992;BME280;56865;51.618;7.406;2023-05-19T11:20:54;101697.66;;;34.34;37.95
44992;BME280;56865;51.618;7.406;2023-05-19T11:23:24;101697.78;;;34.15;37.45
44992;BME280;56865;51.618;7.406;2023-05-19T11:25:57;101693.03;;;34.68;38.33
44992;BME280;56865;51.618;7.406;2023-05-19T11:28:30;101695.72;;;34.52;37.42
44992;BME280;56865;51.618;7.406;2023-05-19T11:31:00;101698.72;;;34.46;34.83
44992;BME280;56865;51.618;7.406;2023-05-19T11:33:33;101692.72;;;34.89;39.90
44992;BME280;56865;51.618;7.406;2023-05-19T11:36:03;101693.81;;;34.54;37.96
44992;BME280;56865;51.618;7.406;2023-05-19T11:38:33;101692.13;;;34.21;36.78
44992;BME280;56865;51.618;7.406;2023-05-19T11:41:12;101688.41;;;34.25;36.65
44992;BME280;56865;51.618;7.406;2023-05-19T11:43:46;101670.72;;;35.17;39.47
44992;BME280;56865;51.618;7.406;2023-05-19T11:46:16;101674.09;;;34.60;37.45
44992;BME280;56865;51.618;7.406;2023-05-19T11:48:46;101673.38;;;34.72;36.71
44992;BME280;56865;51.618;7.406;2023-05-19T11:51:16;101677.03;;;34.86;37.14
44992;BME280;56865;51.618;7.406;2023-05-19T11:53:49;101682.50;;;34.66;34.70
44992;BME280;56865;51.618;7.406;2023-05-19T11:56:23;101676.84;;;34.26;35.59
44992;BME280;56865;51.618;7.406;2023-05-19T11:58:52;101671.56;;;34.42;36.43
44992;BME280;56865;51.618;7.406;2023-05-19T12:01:25;101663.72;;;34.71;37.20
44992;BME280;56865;51.618;7.406;2023-05-19T12:04:07;101675.44;;;34.97;36.02
44992;BME280;56865;51.618;7.406;2023-05-19T12:06:37;101665.78;;;34.96;35.39
44992;BME280;56865;51.618;7.406;2023-05-19T12:09:07;101664.19;;;34.47;33.04
44992;BME280;56865;51.618;7.406;2023-05-19T12:11:40;101657.38;;;34.27;34.82
44992;BME280;56865;51.618;7.406;2023-05-19T12:14:10;101657.13;;;34.48;35.49
44992;BME280;56865;51.618;7.406;2023-05-19T12:16:40;101656.25;;;34.31;34.73
44992;BME280;56865;51.618;7.406;2023-05-19T12:19:10;101641.97;;;35.40;35.70
44992;BME280;56865;51.618;7.406;2023-05-19T12:21:41;101643.97;;;35.36;35.51
44992;BME280;56865;51.618;7.406;2023-05-19T12:24:11;101654.84;;;35.46;38.00
44992;BME280;56865;51.618;7.406;2023-05-19T12:26:45;101646.75;;;35.76;37.02
44992;BME280;56865;51.618;7.406;2023-05-19T12:29:15;101643.22;;;35.90;38.51
44992;BME280;56865;51.618;7.406;2023-05-19T12:31:45;101636.50;;;36.12;40.01
44992;BME280;56865;51.618;7.406;2023-05-19T12:34:16;101638.13;;;35.73;36.69
44992;BME280;56865;51.618;7.406;2023-05-19T12:36:46;101642.28;;;35.77;36.78
44992;BME280;56865;51.618;7.406;2023-05-19T12:39:15;101627.94;;;35.94;36.03
44992;BME280;56865;51.618;7.406;2023-05-19T12:41:49;101618.63;;;35.59;36.27
44992;BME280;56865;51.618;7.406;2023-05-19T12:44:20;101633.03;;;35.41;36.59
44992;BME280;56865;51.618;7.406;2023-05-19T12:46:50;101635.19;;;35.63;35.35
44992;BME280;56865;51.618;7.406;2023-05-19T12:49:20;101632.69;;;36.16;36.63
44992;BME280;56865;51.618;7.406;2023-05-19T12:51:50;101630.13;;;36.42;36.58
44992;BME280;56865;51.618;7.406;2023-05-19T12:54:20;101627.84;;;35.95;35.66
44992;BME280;56865;51.618;7.406;2023-05-19T12:56:54;101625.47;;;35.91;35.33
44992;BME280;56865;51.618;7.406;2023-05-19T12:59:26;101622.44;;;35.26;34.17
44992;BME280;56865;51.618;7.406;2023-05-19T13:02:03;101624.63;;;36.18;35.73
44992;BME280;56865;51.618;7.406;2023-05-19T13:04:33;101617.34;;;35.38;32.49
44992;BME280;56865;51.618;7.406;2023-05-19T13:07:03;101619.81;;;36.50;35.08
44992;BME280;56865;51.618;7.406;2023-05-19T13:09:33;101611.78;;;36.24;32.00
44992;BME280;56865;51.618;7.406;2023-05-19T13:12:06;101613.69;;;37.40;35.23
44992;BME280;56865;51.618;7.406;2023-05-19T13:14:36;101616.88;;;37.19;34.36
44992;BME280;56865;51.618;7.406;2023-05-19T13:17:10;101613.47;;;37.04;33.08
44992;BME280;56865;51.618;7.406;2023-05-19T13:19:40;101612.81;;;37.27;33.04
44992;BME280;56865;51.618;7.406;2023-05-19T13:22:10;101608.31;;;37.90;34.51
44992;BME280;56865;51.618;7.406;2023-05-19T13:24:40;101604.88;;;38.12;36.02
44992;BME280;56865;51.618;7.406;2023-05-19T13:27:12;101610.97;;;37.90;34.15
44992;BME280;56865;51.618;7.406;2023-05-19T13:29:42;101605.34;;;38.06;32.72
44992;BME280;56865;51.618;7.406;2023-05-19T13:32:12;101599.00;;;37.96;32.90
44992;BME280;56865;51.618;7.406;2023-05-19T13:34:42;101616.00;;;38.06;34.10
44992;BME280;56865;51.618;7.406;2023-05-19T13:37:12;101606.88;;;37.23;31.56
44992;BME280;56865;51.618;7.406;2023-05-19T13:39:42;101618.28;;;37.62;33.04
44992;BME280;56865;51.618;7.406;2023-05-19T13:42:14;101613.34;;;38.06;33.55
44992;BME280;56865;51.618;7.406;2023-05-19T13:44:45;101602.41;;;37.23;31.81
44992;BME280;56865;51.618;7.406;2023-05-19T13:47:15;101601.88;;;37.81;31.86
44992;BME280;56865;51.618;7.406;2023-05-19T13:49:44;101597.91;;;38.58;35.89
44992;BME280;56865;51.618;7.406;2023-05-19T13:52:14;101600.66;;;37.61;32.36
44992;BME280;56865;51.618;7.406;2023-05-19T13:54:44;101603.84;;;38.73;33.71
44992;BME280;56865;51.618;7.406;2023-05-19T13:57:17;101594.91;;;39.42;33.87
44992;BME280;56865;51.618;7.406;2023-05-19T13:59:47;101600.38;;;38.84;31.84
44992;BME280;56865;51.618;7.406;2023-05-19T14:02:27;101587.78;;;38.03;30.86
44992;BME280;56865;51.618;7.406;2023-05-19T14:04:58;101599.50;;;37.77;31.62
44992;BME280;56865;51.618;7.406;2023-05-19T14:07:28;101595.75;;;37.05;31.46